Latest Weather Observations for Mount Nowa Nowa

IDV60801

Issued at 2:35 am EST Thursday 28 August 2014 (issued every 30 minutes, with the page automatically refreshed every 10 minutes)

About weather observations | Map of weather stations | Latest weather observations for VIC | Other Formats
Station Details ID: 084144 Name: MOUNT NOWA NOWA Lat: -37.69 Lon: 148.09 Height: 350.0 m
Data from the previous 72 hours. | See also: Recent months at Mount Nowa Nowa
Date/Time
EST
Temp
°C
App
Temp
°C
Dew
Point
Rel
Hum
%
Delta-T
°C
Wind Press
QNH
hPa
Press
MSL
hPa
Rain
since 9 am
mm
Dir
 
Spd
km/h
Gust
km/h
Spd
kts
Gust
kts
28/02:30am 7.7 4.8 4.8 82 1.3 NNW 9 15 5 8 - - 0.0
28/02:00am 7.8 4.9 4.7 81 1.4 N 9 15 5 8 - - 0.0
28/01:30am 8.3 5.5 5.1 80 1.5 N 9 15 5 8 - - 0.0
28/01:00am 8.6 6.2 5.2 79 1.6 N 7 13 4 7 - - 0.0
28/12:30am 8.9 6.3 6.0 82 1.4 N 9 17 5 9 - - 0.0
28/12:00am 9.5 7.0 6.4 81 1.5 N 9 15 5 8 - - 0.0
 
Date/Time
EST
Temp
°C
App
Temp
°C
Dew
Point
Rel
Hum
%
Delta-T
°C
Wind Press
QNH
hPa
Press
MSL
hPa
Rain
since 9 am
mm
Dir
 
Spd
km/h
Gust
km/h
Spd
kts
Gust
kts
27/11:30pm 9.5 7.0 6.6 82 1.4 N 9 11 5 6 - - 0.0
27/11:00pm 9.8 7.7 6.5 80 1.6 N 7 9 4 5 - - 0.0
27/10:30pm 9.5 7.4 6.6 82 1.4 N 7 11 4 6 - - 0.0
27/10:00pm 8.9 6.4 6.5 85 1.1 E 9 13 5 7 - - 0.0
27/09:30pm 8.8 6.3 6.6 86 1.0 E 9 15 5 8 - - 0.0
27/09:00pm 8.8 6.7 6.6 86 1.0 E 7 13 4 7 - - 0.0
27/08:30pm 9.0 6.5 6.6 85 1.1 E 9 13 5 7 - - 0.0
27/08:00pm 9.2 6.7 6.6 84 1.2 E 9 15 5 8 - - 0.0
27/07:30pm 9.1 6.6 6.5 84 1.2 E 9 13 5 7 - - 0.0
27/07:00pm 9.3 6.8 6.6 83 1.3 E 9 13 5 7 - - 0.0
27/06:30pm 9.6 7.5 6.5 81 1.5 E 7 11 4 6 - - 0.0
27/06:00pm 10.3 8.2 6.5 77 1.8 E 7 11 4 6 - - 0.0
27/05:30pm 11.4 9.5 6.7 73 2.3 E 6 11 3 6 - - 0.0
27/05:00pm 12.4 10.7 7.7 73 2.3 ESE 6 9 3 5 - - 0.0
27/04:30pm 13.7 12.1 8.1 69 2.8 ESE 6 9 3 5 - - 0.0
27/04:00pm 14.5 12.9 8.2 66 3.2 SE 6 11 3 6 - - 0.0
27/03:30pm 15.0 13.6 8.7 66 3.3 SE 6 13 3 7 - - 0.0
27/03:00pm 15.8 14.6 8.1 60 4.0 E 4 9 2 5 - - 0.0
27/02:30pm 15.9 14.5 7.1 56 4.4 SE 4 7 2 4 - - 0.0
27/02:00pm 16.1 15.0 7.1 55 4.5 ESE 2 6 1 3 - - 0.0
27/01:30pm 16.3 14.8 6.7 53 4.8 E 4 13 2 7 - - 0.0
27/01:00pm 16.1 14.2 6.8 54 4.7 ENE 6 11 3 6 - - 0.0
27/12:30pm 15.6 13.7 6.9 56 4.4 E 6 11 3 6 - - 0.0
27/12:00pm 14.8 13.1 7.4 61 3.7 E 6 11 3 6 - - 0.0
27/11:30am 14.6 12.6 6.4 58 4.0 E 6 13 3 7 - - 0.0
27/11:00am 14.0 11.8 6.1 59 3.8 E 7 11 4 6 - - 0.0
27/10:30am 13.2 11.3 6.5 64 3.3 E 6 11 3 6 - - 0.0
27/10:00am 13.0 12.1 7.9 71 2.6 NE 2 6 1 3 - - 0.0
27/09:30am 11.7 10.1 6.4 70 2.6 NE 4 7 2 4 - - 0.0
27/09:00am 11.0 9.1 6.7 75 2.1 ENE 6 9 3 5 - - 0.0
27/08:30am 10.3 8.7 6.5 77 1.8 E 4 7 2 4 - - 0.0
27/08:00am 10.3 8.7 6.3 76 1.9 ENE 4 7 2 4 - - 0.0
27/07:30am 8.9 6.8 6.0 82 1.4 E 6 9 3 5 - - 0.0
27/07:00am 8.4 6.3 5.7 83 1.2 E 6 11 3 6 - - 0.0
27/06:30am 8.1 6.3 5.4 83 1.2 E 4 9 2 5 - - 0.0
27/06:00am 8.4 6.7 5.7 83 1.2 E 4 9 2 5 - - 0.0
27/05:30am 8.5 6.4 5.8 83 1.3 E 6 11 3 6 - - 0.0
27/05:00am 8.6 6.9 6.1 84 1.2 E 4 7 2 4 - - 0.0
27/04:30am 9.0 7.0 6.3 83 1.3 E 6 9 3 5 - - 0.0
27/04:00am 9.3 7.1 6.2 81 1.5 E 7 13 4 7 - - 0.0
27/03:30am 9.7 7.1 6.2 79 1.7 E 9 15 5 8 - - 0.0
27/03:00am 9.9 7.4 6.4 79 1.7 E 9 13 5 7 - - 0.0
27/02:30am 10.1 8.0 6.6 79 1.7 E 7 11 4 6 - - 0.0
27/02:00am 9.6 7.7 6.7 82 1.4 E 6 9 3 5 - - 0.0
27/01:30am 9.5 8.0 6.6 82 1.4 ENE 4 7 2 4 - - 0.0
27/01:00am 9.7 7.6 6.8 82 1.4 ENE 7 9 4 5 - - 0.0
27/12:30am 10.1 8.0 6.8 80 1.6 E 7 13 4 7 - - 0.0
27/12:00am 10.2 8.2 6.9 80 1.6 E 7 9 4 5 - - 0.0
 
Date/Time
EST
Temp
°C
App
Temp
°C
Dew
Point
Rel
Hum
%
Delta-T
°C
Wind Press
QNH
hPa
Press
MSL
hPa
Rain
since 9 am
mm
Dir
 
Spd
km/h
Gust
km/h
Spd
kts
Gust
kts
26/11:30pm 10.2 7.9 7.3 82 1.4 E 9 13 5 7 - - 0.0
26/11:00pm 10.1 7.4 7.3 83 1.4 E 11 19 6 10 - - 0.0
26/10:30pm 9.9 7.7 7.7 86 1.1 E 9 15 5 8 - - 0.0
26/10:00pm 10.1 7.6 8.0 87 1.0 E 11 19 6 10 - - 0.0
26/09:30pm 9.7 6.9 8.6 93 0.5 E 13 19 7 10 - - 0.0
26/09:00pm 9.4 7.0 8.6 95 0.4 E 11 19 6 10 - - 0.0
26/08:30pm 9.4 7.4 8.6 95 0.4 E 9 15 5 8 - - 0.0
26/08:00pm 9.6 7.2 8.8 95 0.4 E 11 19 6 10 - - 0.0
26/07:30pm 9.8 7.9 8.9 94 0.5 E 9 13 5 7 - - 0.0
26/07:00pm 10.2 8.7 9.0 92 0.6 E 7 9 4 5 - - 0.0
26/06:30pm 10.7 9.4 9.1 90 0.8 ESE 6 7 3 4 - - 0.0
26/06:00pm 11.3 10.1 9.4 88 1.0 ESE 6 9 3 5 - - 0.0
26/05:30pm 12.0 10.8 9.7 86 1.2 ESE 6 7 3 4 - - 0.0
26/05:00pm 12.6 11.9 10.0 84 1.4 ESE 4 7 2 4 - - 0.0
26/04:30pm 13.4 12.5 10.6 83 1.5 ESE 6 11 3 6 - - 0.0
26/04:00pm 14.0 13.0 11.0 82 1.6 ESE 7 13 4 7 - - 0.0
26/03:30pm 14.5 13.6 10.7 78 2.0 ESE 6 15 3 8 - - 0.0
26/03:00pm 15.4 14.6 11.2 76 2.3 ESE 6 17 3 9 - - 0.0
26/02:30pm 15.0 14.0 10.4 74 2.5 ESE 6 13 3 7 - - 0.0
26/02:00pm 14.7 13.9 11.1 79 1.9 E 6 17 3 9 - - 0.0
26/01:30pm 14.2 13.2 10.2 77 2.1 ESE 6 11 3 6 - - 0.0
26/01:00pm 15.0 14.0 8.9 67 3.2 E 4 11 2 6 - - 0.0
26/12:30pm 14.9 13.7 9.7 71 2.7 E 6 9 3 5 - - 0.0
26/12:00pm 13.7 13.1 10.5 81 1.7 E 4 9 2 5 - - 0.0
26/11:30am 13.4 12.3 10.0 80 1.8 E 6 9 3 5 - - 0.0
26/11:00am 13.2 12.2 10.4 83 1.5 ENE 6 11 3 6 - - 0.0
26/10:30am 11.8 11.7 10.9 94 0.5 ENE 2 6 1 3 - - 0.0
26/10:00am 10.3 9.6 10.1 99 0.1 ENE 4 11 2 6 - - 0.0
26/09:30am 10.1 9.4 10.0 99 0.1 ESE 4 7 2 4 - - 0.0
26/09:00am 10.0 9.3 9.9 99 0.1 ESE 4 6 2 3 - - 0.0
26/08:30am 10.0 10.0 9.9 99 0.1 CALM 0 6 0 3 - - 0.0
26/08:00am 10.3 10.4 10.1 99 0.1 CALM 0 2 0 1 - - 0.0
26/07:30am 9.9 9.9 9.8 99 0.1 CALM 0 4 0 2 - - 0.0
26/07:00am 9.7 9.3 9.6 99 0.1 ESE 2 4 1 2 - - 0.0
26/06:30am 9.0 8.8 8.9 99 0.0 CALM 0 0 0 0 - - 0.0
26/06:00am 9.0 8.0 8.9 99 0.0 S 4 6 2 3 - - 0.0
26/05:30am 8.5 7.8 8.4 99 0.0 W 2 4 1 2 - - 0.0
26/05:00am 8.7 8.0 8.6 99 0.0 W 2 4 1 2 - - 0.0
26/04:30am 8.9 7.9 8.8 99 0.0 SW 4 7 2 4 - - 0.0
26/04:00am 8.9 7.5 8.8 99 0.0 SW 6 9 3 5 - - 0.0
26/03:30am 8.5 7.4 8.4 99 0.0 WSW 4 6 2 3 - - 0.0
26/03:00am 8.8 7.8 8.7 99 0.0 SW 4 7 2 4 - - 0.0
26/02:30am 9.0 8.0 8.9 99 0.0 SSW 4 7 2 4 - - 0.0
26/02:00am 9.0 8.0 8.9 99 0.0 SW 4 7 2 4 - - 0.0
26/01:30am 8.9 7.9 8.8 99 0.0 SW 4 7 2 4 - - 0.0
26/01:00am 9.1 8.5 8.8 98 0.1 SW 2 6 1 3 - - 0.0
26/12:30am 9.2 8.6 8.9 98 0.1 SW 2 6 1 3 - - 0.0
26/12:00am 9.0 8.0 8.7 98 0.1 SW 4 6 2 3 - - 0.0
 
Date/Time
EST
Temp
°C
App
Temp
°C
Dew
Point
Rel
Hum
%
Delta-T
°C
Wind Press
QNH
hPa
Press
MSL
hPa
Rain
since 9 am
mm
Dir
 
Spd
km/h
Gust
km/h
Spd
kts
Gust
kts
25/11:30pm 8.9 7.8 8.6 98 0.1 WSW 4 6 2 3 - - 0.0
25/11:00pm 9.1 8.1 8.8 98 0.1 SW 4 7 2 4 - - 0.0
25/10:30pm 9.1 8.1 8.8 98 0.1 SW 4 9 2 5 - - 0.0
25/10:00pm 9.0 7.6 8.7 98 0.1 SW 6 7 3 4 - - 0.0
25/09:30pm 8.9 7.8 8.6 98 0.1 WSW 4 6 2 3 - - 0.0
25/09:00pm 8.7 8.0 8.4 98 0.1 NW 2 6 1 3 - - 0.0
25/08:30pm 8.7 7.6 8.3 97 0.2 WNW 4 6 2 3 - - 0.0
25/08:00pm 9.1 8.4 8.6 97 0.2 WNW 2 4 1 2 - - 0.0
25/07:30pm 9.2 8.2 8.7 97 0.2 SW 4 4 2 2 - - 0.0
25/07:00pm 9.2 8.5 8.6 96 0.3 SW 2 4 1 2 - - 0.0
25/06:30pm 9.6 8.6 9.0 96 0.3 S 4 7 2 4 - - 0.0
25/06:00pm 9.6 8.2 8.7 94 0.4 S 6 9 3 5 - - 0.0
25/05:30pm 9.8 8.3 8.6 92 0.6 SSE 6 9 3 5 - - 0.0
25/05:00pm 10.2 8.6 8.8 91 0.7 S 7 11 4 6 - - 0.0
25/04:30pm 10.7 9.2 8.6 87 1.1 SSE 6 13 3 7 - - 0.0
25/04:00pm 11.0 10.0 8.9 87 1.1 SSE 4 9 2 5 - - 0.0
25/03:30pm 12.3 10.9 8.8 79 1.8 SSE 6 11 3 6 - - 0.0
25/03:00pm 11.4 9.7 8.4 82 1.5 SSE 7 17 4 9 - - 0.0
25/02:30pm 12.1 10.5 8.8 80 1.7 SSE 7 17 4 9 - - 0.0
25/02:00pm 12.3 10.8 9.0 80 1.7 SSE 7 13 4 7 - - 0.0
25/01:30pm 11.9 10.3 8.7 81 1.6 SSE 7 20 4 11 - - 0.0
25/01:00pm 13.0 12.0 8.7 75 2.2 S 4 7 2 4 - - 0.0
25/12:30pm 12.8 11.7 8.3 74 2.3 SSW 4 7 2 4 - - 0.0
25/12:00pm 12.2 11.5 6.9 70 2.6 CALM 0 6 0 3 - - 0.0
25/11:30am 11.6 9.7 6.7 72 2.4 SSW 6 9 3 5 - - 0.0
25/11:00am 11.3 10.7 7.4 77 1.9 CALM 0 2 0 1 - - 0.0
25/10:30am 10.7 9.9 8.3 85 1.2 SW 2 4 1 2 - - 0.0
25/10:00am 11.5 11.0 9.2 86 1.2 WNW 2 6 1 3 - - 0.0
25/09:30am 9.8 8.2 7.9 88 0.9 N 6 7 3 4 - - 0.0
25/09:00am 9.0 7.7 7.5 90 0.7 N 4 9 2 5 - - 4.8
25/08:30am 8.8 7.7 7.1 89 0.8 N 2 6 1 3 - - 4.8
25/08:00am 8.1 6.2 6.6 90 0.7 N 6 7 3 4 - - 4.8
25/07:30am 8.0 6.1 6.9 93 0.5 N 6 9 3 5 - - 4.8
25/07:00am 7.8 5.9 6.9 94 0.4 N 6 9 3 5 - - 4.8
25/06:30am 7.7 5.8 6.5 92 0.6 NE 6 9 3 5 - - 4.8
25/06:00am 8.0 6.1 6.8 92 0.6 NNE 6 7 3 4 - - 4.8
25/05:30am 7.4 5.9 6.8 96 0.3 NE 4 9 2 5 - - 4.8
25/05:00am 7.6 6.1 6.7 94 0.4 ENE 4 7 2 4 - - 4.8
25/04:30am 7.6 5.7 6.9 95 0.3 ENE 6 7 3 4 - - 4.8
25/04:00am 8.1 7.3 6.6 90 0.7 CALM 0 0 0 0 - - 4.8
25/03:30am 7.5 6.3 6.6 94 0.4 E 2 4 1 2 - - 4.8
25/03:00am 7.4 6.6 6.5 94 0.4 CALM 0 0 0 0 - - 4.8

Other Formats:

Comma delimited format used in spreadsheet applications
http://www.bom.gov.au/fwo/IDV60801/IDV60801.94930.axf

JavaScript Object Notation format (JSON) in row-major order
http://www.bom.gov.au/fwo/IDV60801/IDV60801.94930.json